sensor_id;sensor_type;location;lat;lon;timestamp;pressure;altitude;pressure_sealevel;temperature;humidity
55044;BME280;54902;50.420;18.854;2023-04-30T00:00:15;101235.78;;;11.95;77.35
55044;BME280;54902;50.420;18.854;2023-04-30T00:00:46;101240.39;;;11.94;77.38
55044;BME280;54902;50.420;18.854;2023-04-30T00:01:17;101231.29;;;11.94;77.27
55044;BME280;54902;50.420;18.854;2023-04-30T00:01:48;101239.51;;;11.94;77.42
55044;BME280;54902;50.420;18.854;2023-04-30T00:02:19;101237.76;;;11.93;77.35
55044;BME280;54902;50.420;18.854;2023-04-30T00:02:50;101236.04;;;11.92;77.31
55044;BME280;54902;50.420;18.854;2023-04-30T00:03:21;101238.78;;;11.92;77.22
55044;BME280;54902;50.420;18.854;2023-04-30T00:03:54;101237.88;;;11.91;77.20
55044;BME280;54902;50.420;18.854;2023-04-30T00:04:25;101236.04;;;11.92;77.13
55044;BME280;54902;50.420;18.854;2023-04-30T00:04:56;101238.02;;;11.90;77.06
55044;BME280;54902;50.420;18.854;2023-04-30T00:05:27;101243.49;;;11.90;77.06
55044;BME280;54902;50.420;18.854;2023-04-30T00:05:58;101235.28;;;11.90;77.28
55044;BME280;54902;50.420;18.854;2023-04-30T00:06:29;101236.27;;;11.89;77.22
55044;BME280;54902;50.420;18.854;2023-04-30T00:07:01;101241.75;;;11.89;77.30
55044;BME280;54902;50.420;18.854;2023-04-30T00:07:32;101244.48;;;11.89;77.42
55044;BME280;54902;50.420;18.854;2023-04-30T00:08:03;101243.63;;;11.88;77.38
55044;BME280;54902;50.420;18.854;2023-04-30T00:08:34;101246.36;;;11.88;77.35
55044;BME280;54902;50.420;18.854;2023-04-30T00:09:05;101244.48;;;11.89;77.33
55044;BME280;54902;50.420;18.854;2023-04-30T00:09:36;101249.09;;;11.88;77.29
55044;BME280;54902;50.420;18.854;2023-04-30T00:10:10;101238.28;;;11.87;77.19
55044;BME280;54902;50.420;18.854;2023-04-30T00:10:41;101243.75;;;11.87;77.38
55044;BME280;54902;50.420;18.854;2023-04-30T00:11:12;101244.61;;;11.87;77.47
55044;BME280;54902;50.420;18.854;2023-04-30T00:11:43;101232.80;;;11.87;77.76
55044;BME280;54902;50.420;18.854;2023-04-30T00:12:14;101241.02;;;11.87;77.81
55044;BME280;54902;50.420;18.854;2023-04-30T00:12:45;101231.94;;;11.86;77.66
55044;BME280;54902;50.420;18.854;2023-04-30T00:13:16;101242.90;;;11.86;77.60
55044;BME280;54902;50.420;18.854;2023-04-30T00:13:51;101242.01;;;11.86;77.54
55044;BME280;54902;50.420;18.854;2023-04-30T00:14:22;101242.01;;;11.86;77.50
55044;BME280;54902;50.420;18.854;2023-04-30T00:14:53;101242.01;;;11.86;77.39
55044;BME280;54902;50.420;18.854;2023-04-30T00:15:25;101248.46;;;11.85;77.71
55044;BME280;54902;50.420;18.854;2023-04-30T00:15:56;101238.54;;;11.84;77.92
55044;BME280;54902;50.420;18.854;2023-04-30T00:16:27;101238.54;;;11.84;77.80
55044;BME280;54902;50.420;18.854;2023-04-30T00:16:58;101238.54;;;11.84;77.62
55044;BME280;54902;50.420;18.854;2023-04-30T00:17:29;101237.65;;;11.83;77.70
55044;BME280;54902;50.420;18.854;2023-04-30T00:18:00;101241.41;;;11.82;77.63
55044;BME280;54902;50.420;18.854;2023-04-30T00:18:31;101242.27;;;11.83;77.59
55044;BME280;54902;50.420;18.854;2023-04-30T00:19:02;101235.92;;;11.82;77.64
55044;BME280;54902;50.420;18.854;2023-04-30T00:19:33;101245.00;;;11.83;77.74
55044;BME280;54902;50.420;18.854;2023-04-30T00:20:05;101234.19;;;11.81;77.67
55044;BME280;54902;50.420;18.854;2023-04-30T00:20:36;101241.51;;;11.81;77.70
55044;BME280;54902;50.420;18.854;2023-04-30T00:21:07;101247.99;;;11.80;77.79
55044;BME280;54902;50.420;18.854;2023-04-30T00:21:38;101245.27;;;11.80;77.84
55044;BME280;54902;50.420;18.854;2023-04-30T00:22:09;101242.52;;;11.80;77.91
55044;BME280;54902;50.420;18.854;2023-04-30T00:22:40;101242.52;;;11.80;78.06
55044;BME280;54902;50.420;18.854;2023-04-30T00:23:11;101247.99;;;11.80;78.17
55044;BME280;54902;50.420;18.854;2023-04-30T00:23:42;101245.27;;;11.80;78.07
55044;BME280;54902;50.420;18.854;2023-04-30T00:24:13;101240.77;;;11.79;77.91
55044;BME280;54902;50.420;18.854;2023-04-30T00:24:44;101239.02;;;11.78;77.85
55044;BME280;54902;50.420;18.854;2023-04-30T00:25:15;101249.98;;;11.78;78.00
55044;BME280;54902;50.420;18.854;2023-04-30T00:25:46;101243.64;;;11.77;78.00
55044;BME280;54902;50.420;18.854;2023-04-30T00:26:17;101246.51;;;11.76;78.09
55044;BME280;54902;50.420;18.854;2023-04-30T00:26:49;101253.70;;;11.77;78.16
55044;BME280;54902;50.420;18.854;2023-04-30T00:27:20;101246.51;;;11.76;78.07
55044;BME280;54902;50.420;18.854;2023-04-30T00:27:51;101250.23;;;11.75;77.96
55044;BME280;54902;50.420;18.854;2023-04-30T00:28:22;101250.23;;;11.75;77.89
55044;BME280;54902;50.420;18.854;2023-04-30T00:28:53;101251.22;;;11.74;77.80
55044;BME280;54902;50.420;18.854;2023-04-30T00:29:24;101254.95;;;11.73;77.78
55044;BME280;54902;50.420;18.854;2023-04-30T00:29:55;101243.99;;;11.73;78.03
55044;BME280;54902;50.420;18.854;2023-04-30T00:30:26;101242.15;;;11.73;78.16
55044;BME280;54902;50.420;18.854;2023-04-30T00:30:57;101241.26;;;11.73;78.18
55044;BME280;54902;50.420;18.854;2023-04-30T00:31:28;101258.70;;;11.72;78.11
55044;BME280;54902;50.420;18.854;2023-04-30T00:31:59;101246.86;;;11.71;78.15
55044;BME280;54902;50.420;18.854;2023-04-30T00:32:30;101258.70;;;11.72;78.01
55044;BME280;54902;50.420;18.854;2023-04-30T00:33:01;101254.23;;;11.71;77.95
55044;BME280;54902;50.420;18.854;2023-04-30T00:33:32;101244.25;;;11.70;77.95
55044;BME280;54902;50.420;18.854;2023-04-30T00:34:03;101249.73;;;11.70;78.02
55044;BME280;54902;50.420;18.854;2023-04-30T00:34:34;101249.73;;;11.70;78.11
55044;BME280;54902;50.420;18.854;2023-04-30T00:35:05;101247.98;;;11.69;78.11
55044;BME280;54902;50.420;18.854;2023-04-30T00:35:36;101256.19;;;11.69;78.01
55044;BME280;54902;50.420;18.854;2023-04-30T00:36:07;101258.92;;;11.69;77.99
55044;BME280;54902;50.420;18.854;2023-04-30T00:36:38;101267.13;;;11.69;77.95
55044;BME280;54902;50.420;18.854;2023-04-30T00:37:10;101252.09;;;11.63;77.67
55044;BME280;54902;50.420;18.854;2023-04-30T00:37:42;101258.19;;;11.67;78.11
55044;BME280;54902;50.420;18.854;2023-04-30T00:38:13;101259.05;;;11.67;78.04
55044;BME280;54902;50.420;18.854;2023-04-30T00:38:44;101257.30;;;11.66;77.99
55044;BME280;54902;50.420;18.854;2023-04-30T00:39:15;101258.19;;;11.67;78.00
55044;BME280;54902;50.420;18.854;2023-04-30T00:39:46;101250.12;;;11.65;77.94
55044;BME280;54902;50.420;18.854;2023-04-30T00:40:17;101261.91;;;11.66;77.85
55044;BME280;54902;50.420;18.854;2023-04-30T00:40:48;101258.32;;;11.65;77.80
55044;BME280;54902;50.420;18.854;2023-04-30T00:41:20;101260.17;;;11.65;77.75
55044;BME280;54902;50.420;18.854;2023-04-30T00:41:52;101257.44;;;11.65;77.68
55044;BME280;54902;50.420;18.854;2023-04-30T00:42:23;101262.91;;;11.65;77.60
55044;BME280;54902;50.420;18.854;2023-04-30T00:42:54;101261.16;;;11.64;77.58
55044;BME280;54902;50.420;18.854;2023-04-30T00:43:25;101262.18;;;11.63;77.54
55044;BME280;54902;50.420;18.854;2023-04-30T00:43:56;101259.30;;;11.64;77.51
55044;BME280;54902;50.420;18.854;2023-04-30T00:44:27;101259.18;;;11.66;77.46
55044;BME280;54902;50.420;18.854;2023-04-30T00:44:58;101258.41;;;11.64;77.49
55044;BME280;54902;50.420;18.854;2023-04-30T00:45:29;101260.30;;;11.63;77.48
55044;BME280;54902;50.420;18.854;2023-04-30T00:46:00;101265.64;;;11.65;77.52
55044;BME280;54902;50.420;18.854;2023-04-30T00:46:34;101260.17;;;11.65;77.55
55044;BME280;54902;50.420;18.854;2023-04-30T00:47:05;101265.64;;;11.65;77.55
55044;BME280;54902;50.420;18.854;2023-04-30T00:47:36;101257.44;;;11.65;77.56
55044;BME280;54902;50.420;18.854;2023-04-30T00:48:07;101258.41;;;11.64;77.74
55044;BME280;54902;50.420;18.854;2023-04-30T00:48:38;101258.41;;;11.64;77.70
55044;BME280;54902;50.420;18.854;2023-04-30T00:49:09;101262.05;;;11.64;77.60
55044;BME280;54902;50.420;18.854;2023-04-30T00:49:40;101260.17;;;11.65;77.60
55044;BME280;54902;50.420;18.854;2023-04-30T00:50:11;101262.91;;;11.65;77.55
55044;BME280;54902;50.420;18.854;2023-04-30T00:50:45;101259.30;;;11.64;77.68
55044;BME280;54902;50.420;18.854;2023-04-30T00:51:16;101257.44;;;11.65;77.68
55044;BME280;54902;50.420;18.854;2023-04-30T00:51:47;101265.64;;;11.65;77.83
55044;BME280;54902;50.420;18.854;2023-04-30T00:52:19;101258.41;;;11.64;77.82
55044;BME280;54902;50.420;18.854;2023-04-30T00:52:50;101262.91;;;11.65;77.83
55044;BME280;54902;50.420;18.854;2023-04-30T00:53:21;101254.69;;;11.65;77.96
55044;BME280;54902;50.420;18.854;2023-04-30T00:53:52;101262.91;;;11.65;77.93
55044;BME280;54902;50.420;18.854;2023-04-30T00:54:24;101265.64;;;11.65;77.80
55044;BME280;54902;50.420;18.854;2023-04-30T00:54:55;101256.71;;;11.63;77.75
55044;BME280;54902;50.420;18.854;2023-04-30T00:55:26;101258.41;;;11.64;77.87
55044;BME280;54902;50.420;18.854;2023-04-30T00:55:58;101257.56;;;11.63;77.81
55044;BME280;54902;50.420;18.854;2023-04-30T00:56:30;101263.89;;;11.64;77.91
55044;BME280;54902;50.420;18.854;2023-04-30T00:57:02;101259.30;;;11.64;77.86
55044;BME280;54902;50.420;18.854;2023-04-30T00:57:37;101250.33;;;11.62;77.75
55044;BME280;54902;50.420;18.854;2023-04-30T00:58:09;101263.03;;;11.63;77.67
55044;BME280;54902;50.420;18.854;2023-04-30T00:58:40;101260.42;;;11.62;77.66
55044;BME280;54902;50.420;18.854;2023-04-30T00:59:12;101267.65;;;11.63;77.65
55044;BME280;54902;50.420;18.854;2023-04-30T00:59:44;101259.45;;;11.63;77.71
55044;BME280;54902;50.420;18.854;2023-04-30T01:00:16;101263.89;;;11.64;78.25
55044;BME280;54902;50.420;18.854;2023-04-30T01:00:48;101258.41;;;11.64;78.29
55044;BME280;54902;50.420;18.854;2023-04-30T01:01:19;101263.03;;;11.63;78.26
55044;BME280;54902;50.420;18.854;2023-04-30T01:01:51;101263.89;;;11.64;78.28
55044;BME280;54902;50.420;18.854;2023-04-30T01:02:22;101264.02;;;11.62;78.16
55044;BME280;54902;50.420;18.854;2023-04-30T01:02:54;101260.42;;;11.62;78.34
55044;BME280;54902;50.420;18.854;2023-04-30T01:03:27;101265.90;;;11.62;78.54
55044;BME280;54902;50.420;18.854;2023-04-30T01:03:58;101260.42;;;11.62;78.42
55044;BME280;54902;50.420;18.854;2023-04-30T01:04:30;101260.42;;;11.62;78.41
55044;BME280;54902;50.420;18.854;2023-04-30T01:05:04;101258.67;;;11.61;78.32
55044;BME280;54902;50.420;18.854;2023-04-30T01:05:36;101270.61;;;11.60;78.31
55044;BME280;54902;50.420;18.854;2023-04-30T01:06:06;101269.63;;;11.61;78.26
55044;BME280;54902;50.420;18.854;2023-04-30T01:06:38;101267.88;;;11.60;78.17
55044;BME280;54902;50.420;18.854;2023-04-30T01:07:09;101272.48;;;11.60;78.24
55044;BME280;54902;50.420;18.854;2023-04-30T01:07:40;101256.07;;;11.60;78.37
55044;BME280;54902;50.420;18.854;2023-04-30T01:08:15;101262.53;;;11.59;78.30
55044;BME280;54902;50.420;18.854;2023-04-30T01:08:47;101273.47;;;11.59;78.23
55044;BME280;54902;50.420;18.854;2023-04-30T01:09:19;101264.40;;;11.58;78.19
55044;BME280;54902;50.420;18.854;2023-04-30T01:09:50;101268.13;;;11.57;78.15
55044;BME280;54902;50.420;18.854;2023-04-30T01:10:27;101266.37;;;11.56;78.12
55044;BME280;54902;50.420;18.854;2023-04-30T01:16:18;101270.23;;;11.54;78.02
55044;BME280;54902;50.420;18.854;2023-04-30T01:17:43;101269.38;;;11.53;77.83
55044;BME280;54902;50.420;18.854;2023-04-30T01:19:04;101277.58;;;11.53;78.24
55044;BME280;54902;50.420;18.854;2023-04-30T01:19:41;101272.09;;;11.53;78.19
55044;BME280;54902;50.420;18.854;2023-04-30T01:20:12;101271.12;;;11.54;78.28
55044;BME280;54902;50.420;18.854;2023-04-30T01:20:48;101280.31;;;11.53;78.21
55044;BME280;54902;50.420;18.854;2023-04-30T01:21:20;101275.82;;;11.52;78.25
55044;BME280;54902;50.420;18.854;2023-04-30T01:21:51;101274.97;;;11.52;78.15
55044;BME280;54902;50.420;18.854;2023-04-30T01:22:35;101278.56;;;11.52;78.05
55044;BME280;54902;50.420;18.854;2023-04-30T01:25:34;101274.97;;;11.52;78.49
55044;BME280;54902;50.420;18.854;2023-04-30T01:26:23;101275.09;;;11.50;78.45
55044;BME280;54902;50.420;18.854;2023-04-30T01:28:17;101278.81;;;11.49;78.24
55044;BME280;54902;50.420;18.854;2023-04-30T01:28:56;101276.08;;;11.49;78.33
55044;BME280;54902;50.420;18.854;2023-04-30T01:29:31;101283.39;;;11.49;78.25
55044;BME280;54902;50.420;18.854;2023-04-30T01:30:05;101284.38;;;11.48;78.36
55044;BME280;54902;50.420;18.854;2023-04-30T01:30:38;101285.25;;;11.48;78.52
55044;BME280;54902;50.420;18.854;2023-04-30T01:31:16;101284.38;;;11.48;78.61
55044;BME280;54902;50.420;18.854;2023-04-30T01:31:47;101291.73;;;11.47;78.63
55044;BME280;54902;50.420;18.854;2023-04-30T01:32:18;101278.05;;;11.47;78.57
55044;BME280;54902;50.420;18.854;2023-04-30T01:32:49;101287.12;;;11.48;78.85
55044;BME280;54902;50.420;18.854;2023-04-30T01:33:20;101280.79;;;11.47;78.90
55044;BME280;54902;50.420;18.854;2023-04-30T01:33:51;101288.10;;;11.47;78.71
55044;BME280;54902;50.420;18.854;2023-04-30T01:34:22;101280.88;;;11.46;78.54
55044;BME280;54902;50.420;18.854;2023-04-30T01:34:53;101285.50;;;11.45;78.57
55044;BME280;54902;50.420;18.854;2023-04-30T01:36:20;101288.23;;;11.45;78.79
55044;BME280;54902;50.420;18.854;2023-04-30T01:37:51;101290.97;;;11.45;78.94
55044;BME280;54902;50.420;18.854;2023-04-30T01:41:28;101286.73;;;11.41;78.61
55044;BME280;54902;50.420;18.854;2023-04-30T01:42:44;101292.20;;;11.41;78.99
55044;BME280;54902;50.420;18.854;2023-04-30T01:46:17;101296.91;;;11.39;79.41
55044;BME280;54902;50.420;18.854;2023-04-30T01:52:01;101288.22;;;11.34;79.23
55044;BME280;54902;50.420;18.854;2023-04-30T01:52:39;101293.69;;;11.34;79.18
55044;BME280;54902;50.420;18.854;2023-04-30T01:53:57;101290.95;;;11.34;79.34
55044;BME280;54902;50.420;18.854;2023-04-30T01:55:19;101299.16;;;11.34;79.38
55044;BME280;54902;50.420;18.854;2023-04-30T01:55:56;101292.20;;;11.30;79.68
55044;BME280;54902;50.420;18.854;2023-04-30T01:56:39;101297.41;;;11.33;79.81
55044;BME280;54902;50.420;18.854;2023-04-30T01:57:17;101295.54;;;11.34;79.80
55044;BME280;54902;50.420;18.854;2023-04-30T01:57:57;101298.27;;;11.34;80.02
55044;BME280;54902;50.420;18.854;2023-04-30T01:58:28;101308.35;;;11.33;80.13
55044;BME280;54902;50.420;18.854;2023-04-30T01:59:01;101302.02;;;11.33;80.04
55044;BME280;54902;50.420;18.854;2023-04-30T01:59:35;101312.07;;;11.32;80.04
55044;BME280;54902;50.420;18.854;2023-04-30T02:00:08;101306.60;;;11.32;79.98
55044;BME280;54902;50.420;18.854;2023-04-30T02:00:41;101301.25;;;11.31;79.93
55044;BME280;54902;50.420;18.854;2023-04-30T02:01:56;101298.65;;;11.29;80.16
55044;BME280;54902;50.420;18.854;2023-04-30T02:02:27;101305.87;;;11.30;80.18
55044;BME280;54902;50.420;18.854;2023-04-30T02:02:58;101305.87;;;11.30;80.33
55044;BME280;54902;50.420;18.854;2023-04-30T02:03:29;101307.71;;;11.30;80.30
55044;BME280;54902;50.420;18.854;2023-04-30T02:04:00;101306.85;;;11.29;80.16
55044;BME280;54902;50.420;18.854;2023-04-30T02:04:31;101316.05;;;11.28;80.03
55044;BME280;54902;50.420;18.854;2023-04-30T02:05:03;101317.15;;;11.26;79.97
55044;BME280;54902;50.420;18.854;2023-04-30T02:05:34;101323.60;;;11.25;79.95
55044;BME280;54902;50.420;18.854;2023-04-30T02:06:05;101317.27;;;11.24;80.04
55044;BME280;54902;50.420;18.854;2023-04-30T02:06:36;101314.54;;;11.24;80.04
55044;BME280;54902;50.420;18.854;2023-04-30T02:07:06;101323.85;;;11.22;80.05
55044;BME280;54902;50.420;18.854;2023-04-30T02:07:40;101323.11;;;11.20;79.93
55044;BME280;54902;50.420;18.854;2023-04-30T02:08:11;101323.11;;;11.20;80.08
55044;BME280;54902;50.420;18.854;2023-04-30T02:08:42;101327.70;;;11.19;80.19
55044;BME280;54902;50.420;18.854;2023-04-30T02:09:13;101325.08;;;11.18;80.08
55044;BME280;54902;50.420;18.854;2023-04-30T02:09:44;101335.29;;;11.16;80.11
55044;BME280;54902;50.420;18.854;2023-04-30T02:10:17;101324.43;;;11.14;80.19
55044;BME280;54902;50.420;18.854;2023-04-30T02:10:48;101318.11;;;11.14;80.38
55044;BME280;54902;50.420;18.854;2023-04-30T02:11:19;101327.30;;;11.13;80.26
55044;BME280;54902;50.420;18.854;2023-04-30T02:11:50;101332.88;;;11.11;80.13
55044;BME280;54902;50.420;18.854;2023-04-30T02:12:21;101327.55;;;11.10;80.01
55044;BME280;54902;50.420;18.854;2023-04-30T02:12:52;101320.45;;;11.07;80.20
55044;BME280;54902;50.420;18.854;2023-04-30T02:13:23;101333.26;;;11.07;80.16
55044;BME280;54902;50.420;18.854;2023-04-30T02:13:54;101333.38;;;11.05;80.08
55044;BME280;54902;50.420;18.854;2023-04-30T02:14:26;101334.36;;;11.04;80.13
55044;BME280;54902;50.420;18.854;2023-04-30T02:14:56;101330.85;;;11.02;80.15
55044;BME280;54902;50.420;18.854;2023-04-30T02:15:27;101332.85;;;11.01;80.04
55044;BME280;54902;50.420;18.854;2023-04-30T02:15:58;101324.91;;;10.98;79.93
55044;BME280;54902;50.420;18.854;2023-04-30T02:16:29;101330.45;;;10.96;79.95
55044;BME280;54902;50.420;18.854;2023-04-30T02:17:00;101339.80;;;10.94;79.82
55044;BME280;54902;50.420;18.854;2023-04-30T02:17:31;101340.00;;;10.91;79.75
55044;BME280;54902;50.420;18.854;2023-04-30T02:18:02;101336.54;;;10.89;79.70
55044;BME280;54902;50.420;18.854;2023-04-30T02:18:33;101339.47;;;10.86;79.69
55044;BME280;54902;50.420;18.854;2023-04-30T02:19:04;101335.14;;;10.83;79.71
55044;BME280;54902;50.420;18.854;2023-04-30T02:19:35;101348.90;;;10.82;79.66
55044;BME280;54902;50.420;18.854;2023-04-30T02:20:07;101340.94;;;10.79;79.62
55044;BME280;54902;50.420;18.854;2023-04-30T02:20:38;101342.94;;;10.77;79.60
55044;BME280;54902;50.420;18.854;2023-04-30T02:21:09;101340.41;;;10.74;79.52
55044;BME280;54902;50.420;18.854;2023-04-30T02:21:40;101352.44;;;10.71;79.50
55044;BME280;54902;50.420;18.854;2023-04-30T02:22:11;101349.09;;;10.68;79.48
55044;BME280;54902;50.420;18.854;2023-04-30T02:22:42;101358.38;;;10.65;79.62
55044;BME280;54902;50.420;18.854;2023-04-30T02:23:13;101346.80;;;10.62;79.59
55044;BME280;54902;50.420;18.854;2023-04-30T02:23:44;101348.80;;;10.60;79.60
55044;BME280;54902;50.420;18.854;2023-04-30T02:24:15;101352.75;;;10.56;79.60
55044;BME280;54902;50.420;18.854;2023-04-30T02:24:46;101353.96;;;10.52;79.59
55044;BME280;54902;50.420;18.854;2023-04-30T02:25:17;101359.51;;;10.50;79.66
55044;BME280;54902;50.420;18.854;2023-04-30T02:25:48;101367.95;;;10.47;79.66
55044;BME280;54902;50.420;18.854;2023-04-30T02:26:19;101355.38;;;10.45;79.67
55044;BME280;54902;50.420;18.854;2023-04-30T02:26:51;101364.79;;;10.41;79.63
55044;BME280;54902;50.420;18.854;2023-04-30T02:27:23;101337.65;;;10.27;79.72
55044;BME280;54902;50.420;18.854;2023-04-30T02:27:57;101358.91;;;10.35;79.70
55044;BME280;54902;50.420;18.854;2023-04-30T02:28:28;101363.74;;;10.31;79.62
55044;BME280;54902;50.420;18.854;2023-04-30T02:28:59;101363.87;;;10.30;79.69
55044;BME280;54902;50.420;18.854;2023-04-30T02:29:31;101371.39;;;10.26;79.89
55044;BME280;54902;50.420;18.854;2023-04-30T02:30:02;101366.17;;;10.23;79.97
55044;BME280;54902;50.420;18.854;2023-04-30T02:30:34;101369.99;;;10.21;79.98
55044;BME280;54902;50.420;18.854;2023-04-30T02:31:05;101368.34;;;10.18;80.10
55044;BME280;54902;50.420;18.854;2023-04-30T02:31:36;101363.13;;;10.15;80.10
55044;BME280;54902;50.420;18.854;2023-04-30T02:32:06;101365.08;;;10.13;80.08
55044;BME280;54902;50.420;18.854;2023-04-30T02:32:38;101373.50;;;10.10;80.08
55044;BME280;54902;50.420;18.854;2023-04-30T02:33:09;101370.10;;;10.07;80.16
55044;BME280;54902;50.420;18.854;2023-04-30T02:33:42;101374.82;;;10.05;80.15
55044;BME280;54902;50.420;18.854;2023-04-30T02:34:13;101372.17;;;10.03;80.08
55044;BME280;54902;50.420;18.854;2023-04-30T02:34:44;101375.99;;;10.01;80.09
55044;BME280;54902;50.420;18.854;2023-04-30T02:35:15;101372.64;;;9.97;80.09
55044;BME280;54902;50.420;18.854;2023-04-30T02:35:46;101377.32;;;9.95;80.21
55044;BME280;54902;50.420;18.854;2023-04-30T02:36:17;101386.48;;;9.94;80.14
55044;BME280;54902;50.420;18.854;2023-04-30T02:36:48;101374.91;;;9.91;80.24
55044;BME280;54902;50.420;18.854;2023-04-30T02:37:19;101375.98;;;9.88;80.38
55044;BME280;54902;50.420;18.854;2023-04-30T02:37:50;101372.48;;;9.86;80.43
55044;BME280;54902;50.420;18.854;2023-04-30T02:38:21;101376.21;;;9.85;80.46
55044;BME280;54902;50.420;18.854;2023-04-30T02:38:51;101381.87;;;9.83;80.44
55044;BME280;54902;50.420;18.854;2023-04-30T02:39:22;101384.71;;;9.81;80.33
55044;BME280;54902;50.420;18.854;2023-04-30T02:39:53;101382.09;;;9.80;80.33
55044;BME280;54902;50.420;18.854;2023-04-30T02:40:24;101376.87;;;9.77;80.32
55044;BME280;54902;50.420;18.854;2023-04-30T02:40:56;101381.55;;;9.75;80.35
55044;BME280;54902;50.420;18.854;2023-04-30T02:41:27;101382.55;;;9.74;80.50
55044;BME280;54902;50.420;18.854;2023-04-30T02:41:58;101370.97;;;9.70;80.44
55044;BME280;54902;50.420;18.854;2023-04-30T02:42:29;101378.29;;;9.70;80.39
55044;BME280;54902;50.420;18.854;2023-04-30T02:43:00;101379.27;;;9.69;80.32
55044;BME280;54902;50.420;18.854;2023-04-30T02:43:31;101377.63;;;9.66;80.21
55044;BME280;54902;50.420;18.854;2023-04-30T02:44:02;101373.26;;;9.64;80.19
55044;BME280;54902;50.420;18.854;2023-04-30T02:44:33;101373.26;;;9.64;80.30
55044;BME280;54902;50.420;18.854;2023-04-30T02:45:05;101387.98;;;9.61;80.33
55044;BME280;54902;50.420;18.854;2023-04-30T02:45:36;101379.05;;;9.59;80.32
55044;BME280;54902;50.420;18.854;2023-04-30T02:46:07;101381.85;;;9.58;80.33
55044;BME280;54902;50.420;18.854;2023-04-30T02:46:38;101373.79;;;9.56;80.26
55044;BME280;54902;50.420;18.854;2023-04-30T02:47:08;101377.52;;;9.55;80.37
55044;BME280;54902;50.420;18.854;2023-04-30T02:47:39;101383.05;;;9.54;80.33
55044;BME280;54902;50.420;18.854;2023-04-30T02:48:10;101384.92;;;9.53;80.22
55044;BME280;54902;50.420;18.854;2023-04-30T02:48:41;101375.09;;;9.51;80.14
55044;BME280;54902;50.420;18.854;2023-04-30T02:49:12;101376.97;;;9.50;80.12
55044;BME280;54902;50.420;18.854;2023-04-30T02:49:43;101384.24;;;9.50;80.06
55044;BME280;54902;50.420;18.854;2023-04-30T02:50:14;101383.50;;;9.48;80.01
55044;BME280;54902;50.420;18.854;2023-04-30T02:50:45;101384.47;;;9.47;79.98
55044;BME280;54902;50.420;18.854;2023-04-30T02:51:16;101390.03;;;9.45;80.00
55044;BME280;54902;50.420;18.854;2023-04-30T02:51:47;101381.07;;;9.43;80.05
55044;BME280;54902;50.420;18.854;2023-04-30T02:52:18;101385.66;;;9.43;80.09
55044;BME280;54902;50.420;18.854;2023-04-30T02:52:49;101383.91;;;9.42;80.05
55044;BME280;54902;50.420;18.854;2023-04-30T02:53:20;101384.92;;;9.41;80.03
55044;BME280;54902;50.420;18.854;2023-04-30T02:53:51;101381.41;;;9.39;80.04
55044;BME280;54902;50.420;18.854;2023-04-30T02:54:22;101386.87;;;9.39;80.00
55044;BME280;54902;50.420;18.854;2023-04-30T02:54:53;101379.65;;;9.38;79.99
55044;BME280;54902;50.420;18.854;2023-04-30T02:55:24;101379.65;;;9.38;80.02
55044;BME280;54902;50.420;18.854;2023-04-30T02:55:55;101385.32;;;9.35;80.05
55044;BME280;54902;50.420;18.854;2023-04-30T02:56:29;101388.91;;;9.35;79.98
55044;BME280;54902;50.420;18.854;2023-04-30T02:57:00;101385.44;;;9.33;79.88
55044;BME280;54902;50.420;18.854;2023-04-30T02:57:31;101382.71;;;9.33;79.93
55044;BME280;54902;50.420;18.854;2023-04-30T02:58:02;101384.02;;;9.28;79.84
55044;BME280;54902;50.420;18.854;2023-04-30T02:58:33;101389.24;;;9.31;79.92
55044;BME280;54902;50.420;18.854;2023-04-30T02:59:04;101399.18;;;9.32;79.91
55044;BME280;54902;50.420;18.854;2023-04-30T02:59:35;101388.38;;;9.30;79.80
55044;BME280;54902;50.420;18.854;2023-04-30T03:00:08;101389.47;;;9.28;79.74
55044;BME280;54902;50.420;18.854;2023-04-30T03:00:39;101390.44;;;9.27;79.73
55044;BME280;54902;50.420;18.854;2023-04-30T03:01:10;101394.02;;;9.27;79.71
55044;BME280;54902;50.420;18.854;2023-04-30T03:01:41;101397.76;;;9.27;79.65
55044;BME280;54902;50.420;18.854;2023-04-30T03:02:12;101396.86;;;9.26;79.58
55044;BME280;54902;50.420;18.854;2023-04-30T03:02:43;101397.84;;;9.25;79.55
55044;BME280;54902;50.420;18.854;2023-04-30T03:03:14;101387.93;;;9.24;79.55
55044;BME280;54902;50.420;18.854;2023-04-30T03:03:45;101397.09;;;9.23;79.55
55044;BME280;54902;50.420;18.854;2023-04-30T03:04:16;101396.18;;;9.23;79.54
55044;BME280;54902;50.420;18.854;2023-04-30T03:04:47;101395.33;;;9.22;79.45
55044;BME280;54902;50.420;18.854;2023-04-30T03:05:17;101401.74;;;9.21;79.38
55044;BME280;54902;50.420;18.854;2023-04-30T03:05:48;101387.02;;;9.11;79.40
55044;BME280;54902;50.420;18.854;2023-04-30T03:06:19;101401.97;;;9.18;79.42
55044;BME280;54902;50.420;18.854;2023-04-30T03:06:51;101403.73;;;9.19;79.45
55044;BME280;54902;50.420;18.854;2023-04-30T03:07:22;101400.21;;;9.17;79.35
55044;BME280;54902;50.420;18.854;2023-04-30T03:07:52;101402.95;;;9.17;79.29
55044;BME280;54902;50.420;18.854;2023-04-30T03:08:24;101404.91;;;9.15;79.27
55044;BME280;54902;50.420;18.854;2023-04-30T03:08:56;101397.60;;;9.16;79.25
55044;BME280;54902;50.420;18.854;2023-04-30T03:09:27;101403.16;;;9.14;79.20
55044;BME280;54902;50.420;18.854;2023-04-30T03:09:57;101401.41;;;9.13;79.13
55044;BME280;54902;50.420;18.854;2023-04-30T03:10:28;101405.98;;;9.13;79.06
55044;BME280;54902;50.420;18.854;2023-04-30T03:10:59;101402.48;;;9.11;79.00